Terminal Aerodrome Forecast
Issued by NWS Grand Rapids, MI

Home | Current Version | Previous Version | Text Only | Print | Product List | Glossary On
Versions: 1 2 3 4 5 6 7 8 9 10 11 12 13 14 15
820
FTUS43 KGRR 290540
TAFGRR
TAF
KGRR 290540Z 2906/3006 20016G26KT 3SM -SHRA BR VCTS BKN050CB
      WS020/22045KT
     FM291200 23015G25KT P6SM BKN030
     FM291600 23015G25KT P6SM BKN040
     FM300000 23013KT P6SM VCTS BKN040CB=

USA.gov is the U.S. government's official web portal to all federal, state and local government web resources and services.